Time;durP1;ratioP1;P1;durP2;ratioP2;P2;SDS_P1;SDS_P2;PMS_P1;PMS_P2;Temp;Humidity;BMP_temperature;BMP_pressure;BME280_temperature;BME280_humidity;BME280_pressure;Samples;Min_cycle;Max_cycle;Signal;HPM_P1;HPM_P2
2022/05/12 00:00:37;;;;;;;;;;;;;;;;;;6229353;22;19973;-83
2022/05/12 00:03:03;;;;;;;;;;;;;;;;;;6228275;22;20216;-83
2022/05/12 00:05:29;;;;;;;;;;;;;;;;;;6225163;22;19969;-83
2022/05/12 00:07:55;;;;;;;;;;;;;;;;;;6249267;22;20359;-83
2022/05/12 00:10:23;;;;;;;;;;;;;;;;;;6222335;22;20415;-83
2022/05/12 00:12:49;;;;;;;;;;;;;;;;;;6243328;22;19919;-83
2022/05/12 00:15:15;;;;;;;;;;;;;;;;;;6221613;22;19924;-83
2022/05/12 00:17:44;;;;;;;;;;;;;;;;;;6247161;22;19919;-83
2022/05/12 00:20:10;;;;;;;;;;;;;;;;;;6218815;22;20185;-83
2022/05/12 00:22:36;;;;;;;;;;;;;;;;;;6246127;22;19946;-83
2022/05/12 00:25:02;;;;;;;;;;;;;;;;;;6246165;22;19923;-83
2022/05/12 00:27:28;;;;;;;;;;;;;;;;;;6216794;22;19923;-83
2022/05/12 00:29:54;;;;;;;;;;;;;;;;;;6251711;22;20519;-83
2022/05/12 00:32:24;;;;;;;;;;;;;;;;;;6250678;22;19926;-83
2022/05/12 00:34:53;;;;;;;;;;;;;;;;;;6256729;22;20000;-83
2022/05/12 00:37:19;;;;;;;;;;;;;;;;;;6229908;22;19919;-84
2022/05/12 00:39:44;;;;;;;;;;;;;;;;;;6255277;22;19926;-83
2022/05/12 00:42:10;;;;;;;;;;;;;;;;;;6258925;22;19927;-83
2022/05/12 00:44:37;;;;;;;;;;;;;;;;;;6264595;22;20026;-83
2022/05/12 00:47:03;;;;;;;;;;;;;;;;;;6292004;22;19942;-83
2022/05/12 00:49:29;;;;;;;;;;;;;;;;;;6290508;22;20202;-83
2022/05/12 00:51:55;;;;;;;;;;;;;;;;;;6267426;22;19988;-83
2022/05/12 00:54:21;;;;;;;;;;;;;;;;;;6291553;22;19923;-83
2022/05/12 00:56:47;;;;;;;;;;;;;;;;;;6292519;22;19925;-83
2022/05/12 00:59:13;;;;;;;;;;;;;;;;;;6289823;22;19927;-83
2022/05/12 01:01:39;;;;;;;;;;;;;;;;;;6292292;22;19950;-83
2022/05/12 01:04:05;;;;;;;;;;;;;;;;;;6294001;22;19926;-83
2022/05/12 01:06:31;;;;;;;;;;;;;;;;;;6292532;22;19914;-83
2022/05/12 01:08:56;;;;;;;;;;;;;;;;;;6268218;22;20350;-83
2022/05/12 01:14:49;;;;;;;;;;;;;;;;;;6114474;23;20012;-83
2022/05/12 01:53:40;;;;;;;;;;;;;;;;;;5832850;24;20013;-83
2022/05/12 01:57:28;;;;;;;;;;;;;;;;;;5795046;24;20234;-83
2022/05/12 02:06:32;;;;;;;;;;;;;;;;;;5902759;24;20006;-83
2022/05/12 02:08:58;;;;;;;;;;;;;;;;;;5958878;23;20345;-83
2022/05/12 02:11:24;;;;;;;;;;;;;;;;;;6056839;23;19924;-83
2022/05/12 02:13:49;;;;;;;;;;;;;;;;;;6133271;23;20027;-83
2022/05/12 02:16:15;;;;;;;;;;;;;;;;;;6128101;23;19924;-83
2022/05/12 02:18:43;;;;;;;;;;;;;;;;;;6156389;23;19926;-83
2022/05/12 02:21:09;;;;;;;;;;;;;;;;;;6192052;23;20283;-83
2022/05/12 02:23:34;;;;;;;;;;;;;;;;;;6218159;22;19918;-83
2022/05/12 02:26:00;;;;;;;;;;;;;;;;;;6264708;22;19918;-83
2022/05/12 02:28:26;;;;;;;;;;;;;;;;;;6263671;22;19961;-83
2022/05/12 02:30:52;;;;;;;;;;;;;;;;;;6262535;22;19919;-83
2022/05/12 02:33:18;;;;;;;;;;;;;;;;;;6261126;22;20055;-83
2022/05/12 02:35:44;;;;;;;;;;;;;;;;;;6289078;22;19975;-83
2022/05/12 02:38:10;;;;;;;;;;;;;;;;;;6262950;22;20255;-83
2022/05/12 02:40:36;;;;;;;;;;;;;;;;;;6264462;22;19919;-83
2022/05/12 02:43:02;;;;;;;;;;;;;;;;;;6265194;22;19924;-83
2022/05/12 02:45:28;;;;;;;;;;;;;;;;;;6258061;22;19982;-83
2022/05/12 02:47:54;;;;;;;;;;;;;;;;;;6260444;22;19918;-83
2022/05/12 02:50:20;;;;;;;;;;;;;;;;;;6258784;22;20000;-83
2022/05/12 02:52:46;;;;;;;;;;;;;;;;;;6284820;22;19915;-83
2022/05/12 02:55:12;;;;;;;;;;;;;;;;;;6284997;22;20369;-83
2022/05/12 02:57:39;;;;;;;;;;;;;;;;;;6286305;22;19922;-83
2022/05/12 03:00:05;;;;;;;;;;;;;;;;;;6285170;22;19994;-83
2022/05/12 03:02:31;;;;;;;;;;;;;;;;;;6284232;22;19998;-83
2022/05/12 03:04:57;;;;;;;;;;;;;;;;;;6282767;22;19927;-83
2022/05/12 03:07:23;;;;;;;;;;;;;;;;;;6284054;22;19925;-83
2022/05/12 03:09:49;;;;;;;;;;;;;;;;;;6283360;22;19960;-83
2022/05/12 03:12:15;;;;;;;;;;;;;;;;;;6282632;22;19919;-83
2022/05/12 03:14:44;;;;;;;;;;;;;;;;;;6287766;22;20009;-83
2022/05/12 03:17:10;;;;;;;;;;;;;;;;;;6283700;22;20346;-83
2022/05/12 03:19:36;;;;;;;;;;;;;;;;;;6285567;22;20346;-83
2022/05/12 03:22:02;;;;;;;;;;;;;;;;;;6285344;22;19919;-83
2022/05/12 03:24:27;;;;;;;;;;;;;;;;;;6259865;22;20311;-83
2022/05/12 03:26:54;;;;;;;;;;;;;;;;;;6285923;22;20117;-83
2022/05/12 03:29:20;;;;;;;;;;;;;;;;;;6256727;22;19930;-83
2022/05/12 03:31:46;;;;;;;;;;;;;;;;;;6260061;22;20431;-83
2022/05/12 03:34:12;;;;;;;;;;;;;;;;;;6258451;22;19964;-83
2022/05/12 03:36:39;;;;;;;;;;;;;;;;;;6261504;22;19948;-83
2022/05/12 03:39:05;;;;;;;;;;;;;;;;;;6283086;22;19985;-83
2022/05/12 03:41:31;;;;;;;;;;;;;;;;;;6286142;22;20328;-83
2022/05/12 03:46:42;;;;;;;;;;;;;;;;;;6287467;22;19965;-83
2022/05/12 03:49:14;;;;;;;;;;;;;;;;;;6260694;22;20774;-83
2022/05/12 03:51:40;;;;;;;;;;;;;;;;;;6287390;22;19993;-83
2022/05/12 03:54:06;;;;;;;;;;;;;;;;;;6257962;22;19941;-83
2022/05/12 03:56:32;;;;;;;;;;;;;;;;;;6286613;22;19919;-83
2022/05/12 03:58:58;;;;;;;;;;;;;;;;;;6262482;22;19990;-83
2022/05/12 04:01:24;;;;;;;;;;;;;;;;;;6279539;22;19958;-83
2022/05/12 04:03:50;;;;;;;;;;;;;;;;;;6287249;22;19919;-83
2022/05/12 04:06:15;;;;;;;;;;;;;;;;;;6254951;22;20283;-83
2022/05/12 04:08:41;;;;;;;;;;;;;;;;;;6286457;22;19915;-83
2022/05/12 04:11:08;;;;;;;;;;;;;;;;;;6284246;22;19963;-83
2022/05/12 04:13:33;;;;;;;;;;;;;;;;;;6286980;22;20670;-83
2022/05/12 04:15:59;;;;;;;;;;;;;;;;;;6286967;22;19990;-82
2022/05/12 04:18:26;;;;;;;;;;;;;;;;;;6283975;22;19934;-82
2022/05/12 04:20:52;;;;;;;;;;;;;;;;;;6286954;22;19919;-82
2022/05/12 04:23:18;;;;;;;;;;;;;;;;;;6282458;22;20339;-82
2022/05/12 04:25:44;;;;;;;;;;;;;;;;;;6286416;22;19934;-82
2022/05/12 04:28:11;;;;;;;;;;;;;;;;;;6285053;22;19926;-82
2022/05/12 04:30:38;;;;;;;;;;;;;;;;;;6287506;22;19919;-83
2022/05/12 04:35:49;;;;;;;;;;;;;;;;;;6287539;22;19946;-82
2022/05/12 04:38:15;;;;;;;;;;;;;;;;;;6257271;22;19923;-83
2022/05/12 04:40:41;;;;;;;;;;;;;;;;;;6286397;22;19926;-83
2022/05/12 04:43:07;;;;;;;;;;;;;;;;;;6256880;22;19946;-83
2022/05/12 04:45:33;;;;;;;;;;;;;;;;;;6259406;22;20238;-83
2022/05/12 04:47:59;;;;;;;;;;;;;;;;;;6260580;22;19919;-83
2022/05/12 04:50:25;;;;;;;;;;;;;;;;;;6284962;22;20533;-83
2022/05/12 04:52:54;;;;;;;;;;;;;;;;;;6285874;22;19930;-83
2022/05/12 04:55:19;;;;;;;;;;;;;;;;;;6283514;22;19946;-82
2022/05/12 04:57:45;;;;;;;;;;;;;;;;;;6287388;22;19958;-82
2022/05/12 05:00:13;;;;;;;;;;;;;;;;;;6258360;22;19915;-83
2022/05/12 05:02:39;;;;;;;;;;;;;;;;;;6283295;22;19993;-84
2022/05/12 05:05:05;;;;;;;;;;;;;;;;;;6280992;22;20093;-84
2022/05/12 05:07:31;;;;;;;;;;;;;;;;;;6258560;22;19926;-84
2022/05/12 05:09:57;;;;;;;;;;;;;;;;;;6259908;22;19915;-84
2022/05/12 05:12:23;;;;;;;;;;;;;;;;;;6253286;22;19918;-84
2022/05/12 05:14:49;;;;;;;;;;;;;;;;;;6286165;22;19976;-84
2022/05/12 05:17:15;;;;;;;;;;;;;;;;;;6284222;22;20120;-83
2022/05/12 05:19:41;;;;;;;;;;;;;;;;;;6288957;22;19918;-83
2022/05/12 05:22:07;;;;;;;;;;;;;;;;;;6263107;22;19938;-83
2022/05/12 05:24:34;;;;;;;;;;;;;;;;;;6260362;22;19923;-83
2022/05/12 05:27:00;;;;;;;;;;;;;;;;;;6287892;22;19930;-83
2022/05/12 05:29:26;;;;;;;;;;;;;;;;;;6260740;22;19922;-82
2022/05/12 05:31:51;;;;;;;;;;;;;;;;;;6265422;22;19972;-82
2022/05/12 05:34:17;;;;;;;;;;;;;;;;;;6288169;22;19941;-82
2022/05/12 05:36:45;;;;;;;;;;;;;;;;;;6291195;22;20252;-82
2022/05/12 05:39:11;;;;;;;;;;;;;;;;;;6288519;22;19919;-82
2022/05/12 05:41:36;;;;;;;;;;;;;;;;;;6266899;22;19972;-82
2022/05/12 05:44:02;;;;;;;;;;;;;;;;;;6263246;22;19923;-82
2022/05/12 05:46:29;;;;;;;;;;;;;;;;;;6286587;22;19926;-82
2022/05/12 05:48:55;;;;;;;;;;;;;;;;;;6287492;22;19989;-83
2022/05/12 05:54:06;;;;;;;;;;;;;;;;;;6287330;22;20081;-82
2022/05/12 05:56:32;;;;;;;;;;;;;;;;;;6263036;22;19972;-82
2022/05/12 05:58:59;;;;;;;;;;;;;;;;;;6264578;22;19919;-82
2022/05/12 06:01:25;;;;;;;;;;;;;;;;;;6285315;22;19930;-82
2022/05/12 06:03:52;;;;;;;;;;;;;;;;;;6289425;22;19933;-82
2022/05/12 06:06:18;;;;;;;;;;;;;;;;;;6287910;22;19925;-82
2022/05/12 06:08:46;;;;;;;;;;;;;;;;;;6266643;22;19918;-82
2022/05/12 06:11:12;;;;;;;;;;;;;;;;;;6286375;22;19918;-83
2022/05/12 06:13:38;;;;;;;;;;;;;;;;;;6260894;22;19926;-82
2022/05/12 06:16:05;;;;;;;;;;;;;;;;;;6284042;22;19919;-82
2022/05/12 06:18:31;;;;;;;;;;;;;;;;;;6286363;22;19919;-82
2022/05/12 06:20:56;;;;;;;;;;;;;;;;;;6291507;22;19919;-81
2022/05/12 06:23:22;;;;;;;;;;;;;;;;;;6289959;22;20367;-82
2022/05/12 06:25:48;;;;;;;;;;;;;;;;;;6291674;22;19923;-82
2022/05/12 06:28:15;;;;;;;;;;;;;;;;;;6288197;22;19954;-82
2022/05/12 06:30:40;;;;;;;;;;;;;;;;;;6261019;22;19954;-82
2022/05/12 06:33:06;;;;;;;;;;;;;;;;;;6288117;22;19990;-82
2022/05/12 06:35:32;;;;;;;;;;;;;;;;;;6286409;22;19919;-82
2022/05/12 06:37:58;;;;;;;;;;;;;;;;;;6289576;22;19972;-82
2022/05/12 06:40:25;;;;;;;;;;;;;;;;;;6285632;22;20462;-82
2022/05/12 06:46:07;;;;;;;;;;;;;;;;;;6309618;22;19989;-82
2022/05/12 06:48:33;;;;;;;;;;;;;;;;;;6268440;22;19962;-82
2022/05/12 06:50:59;;;;;;;;;;;;;;;;;;6268373;22;19990;-82
2022/05/12 06:53:25;;;;;;;;;;;;;;;;;;6267140;22;19975;-82
2022/05/12 06:55:51;;;;;;;;;;;;;;;;;;6270558;22;19915;-82
2022/05/12 06:58:17;;;;;;;;;;;;;;;;;;6267091;22;19930;-82
2022/05/12 07:00:43;;;;;;;;;;;;;;;;;;6270044;22;20197;-82
2022/05/12 07:03:12;;;;;;;;;;;;;;;;;;6269071;22;19919;-82
2022/05/12 07:05:39;;;;;;;;;;;;;;;;;;6271686;22;19962;-82
2022/05/12 07:08:05;;;;;;;;;;;;;;;;;;6272594;22;19915;-82
2022/05/12 07:10:31;;;;;;;;;;;;;;;;;;6272828;22;19995;-82
2022/05/12 07:12:57;;;;;;;;;;;;;;;;;;6271982;22;19994;-82
2022/05/12 07:15:27;;;;;;;;;;;;;;;;;;6270091;22;19941;-82
2022/05/12 07:17:54;;;;;;;;;;;;;;;;;;6246501;22;19952;-82
2022/05/12 07:28:34;;;;;;;;;;;;;;;;;;6270632;22;19926;-82
2022/05/12 07:31:03;;;;;;;;;;;;;;;;;;6244811;22;19914;-82
2022/05/12 07:33:29;;;;;;;;;;;;;;;;;;6268070;22;19996;-82
2022/05/12 07:35:55;;;;;;;;;;;;;;;;;;6270457;22;19922;-82
2022/05/12 07:38:21;;;;;;;;;;;;;;;;;;6269180;22;19926;-82
2022/05/12 07:40:47;;;;;;;;;;;;;;;;;;6246803;22;19915;-82
2022/05/12 07:43:14;;;;;;;;;;;;;;;;;;6298284;22;19918;-82
2022/05/12 07:45:40;;;;;;;;;;;;;;;;;;6276099;22;19945;-82
2022/05/12 07:48:06;;;;;;;;;;;;;;;;;;6298060;22;19946;-82
2022/05/12 07:50:32;;;;;;;;;;;;;;;;;;6273740;22;19938;-82
2022/05/12 07:52:58;;;;;;;;;;;;;;;;;;6274662;22;20029;-82
2022/05/12 07:55:24;;;;;;;;;;;;;;;;;;6298280;22;19966;-82
2022/05/12 07:57:50;;;;;;;;;;;;;;;;;;6300226;22;19938;-82
2022/05/12 08:00:16;;;;;;;;;;;;;;;;;;6272496;22;19914;-83
2022/05/12 08:02:42;;;;;;;;;;;;;;;;;;6272400;22;20405;-82
2022/05/12 08:05:09;;;;;;;;;;;;;;;;;;6294947;22;19998;-82
2022/05/12 08:07:35;;;;;;;;;;;;;;;;;;6297401;22;20371;-82
2022/05/12 08:10:01;;;;;;;;;;;;;;;;;;6272217;22;19919;-82
2022/05/12 08:12:27;;;;;;;;;;;;;;;;;;6295521;22;20062;-82
2022/05/12 08:14:53;;;;;;;;;;;;;;;;;;6271682;22;19980;-82
2022/05/12 08:17:19;;;;;;;;;;;;;;;;;;6269400;22;19993;-82
2022/05/12 08:19:45;;;;;;;;;;;;;;;;;;6301496;22;19922;-82
2022/05/12 08:22:11;;;;;;;;;;;;;;;;;;6272070;22;19919;-83
2022/05/12 08:24:37;;;;;;;;;;;;;;;;;;6300097;22;19922;-82
2022/05/12 08:27:03;;;;;;;;;;;;;;;;;;6274003;22;19923;-82
2022/05/12 08:29:29;;;;;;;;;;;;;;;;;;6270852;22;20314;-82
2022/05/12 08:31:55;;;;;;;;;;;;;;;;;;6273043;22;19941;-82
2022/05/12 08:34:21;;;;;;;;;;;;;;;;;;6270781;22;19922;-82
2022/05/12 08:36:49;;;;;;;;;;;;;;;;;;6299678;22;19915;-82
2022/05/12 08:39:15;;;;;;;;;;;;;;;;;;6297040;22;19925;-82
2022/05/12 08:41:41;;;;;;;;;;;;;;;;;;6299780;22;20278;-83
2022/05/12 08:44:08;;;;;;;;;;;;;;;;;;6271954;22;20220;-82
2022/05/12 08:46:34;;;;;;;;;;;;;;;;;;6298548;22;19930;-82
2022/05/12 08:49:00;;;;;;;;;;;;;;;;;;6273646;22;19919;-82
2022/05/12 08:51:26;;;;;;;;;;;;;;;;;;6295633;22;19948;-82
2022/05/12 08:53:52;;;;;;;;;;;;;;;;;;6270892;22;20014;-83
2022/05/12 08:56:18;;;;;;;;;;;;;;;;;;6269377;22;19914;-83
2022/05/12 08:58:44;;;;;;;;;;;;;;;;;;6298023;22;19937;-82
2022/05/12 09:01:09;;;;;;;;;;;;;;;;;;6294887;22;19914;-83
2022/05/12 09:03:35;;;;;;;;;;;;;;;;;;6271467;22;19926;-82
2022/05/12 09:06:02;;;;;;;;;;;;;;;;;;6271751;22;19926;-83
2022/05/12 09:08:28;;;;;;;;;;;;;;;;;;6293980;22;20398;-83
2022/05/12 09:10:53;;;;;;;;;;;;;;;;;;6274431;22;19989;-83
2022/05/12 09:13:19;;;;;;;;;;;;;;;;;;6297116;22;19953;-83
2022/05/12 09:15:45;;;;;;;;;;;;;;;;;;6298948;22;19933;-83
2022/05/12 09:18:11;;;;;;;;;;;;;;;;;;6271118;22;19914;-83
2022/05/12 09:20:37;;;;;;;;;;;;;;;;;;6298963;22;19947;-83
2022/05/12 09:23:03;;;;;;;;;;;;;;;;;;6272958;22;19919;-83
2022/05/12 09:25:29;;;;;;;;;;;;;;;;;;6270844;22;19919;-83
2022/05/12 09:27:58;;;;;;;;;;;;;;;;;;6298611;22;20251;-83
2022/05/12 09:30:24;;;;;;;;;;;;;;;;;;6269405;22;20343;-83
2022/05/12 09:32:50;;;;;;;;;;;;;;;;;;6296641;22;19919;-83
2022/05/12 09:35:15;;;;;;;;;;;;;;;;;;6268881;22;19964;-82
2022/05/12 09:37:42;;;;;;;;;;;;;;;;;;6296372;22;19919;-83
2022/05/12 09:40:08;;;;;;;;;;;;;;;;;;6268698;22;19969;-82
2022/05/12 09:42:34;;;;;;;;;;;;;;;;;;6296312;22;19918;-83
2022/05/12 09:44:59;;;;;;;;;;;;;;;;;;6299243;22;20316;-83
2022/05/12 09:47:25;;;;;;;;;;;;;;;;;;6271615;22;19965;-82
2022/05/12 09:50:15;;;;;;;;;;;;;;;;;;6273175;22;19915;-83
2022/05/12 09:52:39;;;;;;;;;;;;;;;;;;6298761;22;19915;-82
2022/05/12 09:55:05;;;;;;;;;;;;;;;;;;6272541;22;19957;-82
2022/05/12 09:57:31;;;;;;;;;;;;;;;;;;6273216;22;19919;-83
2022/05/12 09:59:57;;;;;;;;;;;;;;;;;;6298724;22;19968;-82
2022/05/12 10:07:55;;;;;;;;;;;;;;;;;;6299339;22;19954;-83
2022/05/12 10:10:21;;;;;;;;;;;;;;;;;;6294833;22;19915;-83
2022/05/12 10:12:47;;;;;;;;;;;;;;;;;;6299380;22;19922;-83
2022/05/12 10:15:13;;;;;;;;;;;;;;;;;;6269646;22;19967;-83
2022/05/12 10:17:39;;;;;;;;;;;;;;;;;;6297957;22;19919;-83
2022/05/12 10:20:08;;;;;;;;;;;;;;;;;;6297153;22;19919;-83
2022/05/12 10:22:34;;;;;;;;;;;;;;;;;;6297876;22;19925;-82
2022/05/12 10:25:00;;;;;;;;;;;;;;;;;;6297987;22;19918;-83
2022/05/12 10:27:26;;;;;;;;;;;;;;;;;;6296598;22;20403;-83
2022/05/12 10:29:52;;;;;;;;;;;;;;;;;;6273242;22;19914;-83
2022/05/12 10:32:18;;;;;;;;;;;;;;;;;;6295708;22;19915;-83
2022/05/12 10:34:44;;;;;;;;;;;;;;;;;;6298022;22;19919;-83
2022/05/12 10:37:10;;;;;;;;;;;;;;;;;;6296096;22;19950;-83
2022/05/12 10:39:36;;;;;;;;;;;;;;;;;;6272274;22;19926;-83
2022/05/12 10:42:02;;;;;;;;;;;;;;;;;;6296629;22;19915;-83
2022/05/12 10:44:28;;;;;;;;;;;;;;;;;;6295048;22;19919;-83
2022/05/12 10:46:54;;;;;;;;;;;;;;;;;;6296249;22;19930;-83
2022/05/12 10:49:20;;;;;;;;;;;;;;;;;;6294422;22;19946;-83
2022/05/12 10:51:46;;;;;;;;;;;;;;;;;;6296444;22;19923;-83
2022/05/12 10:54:12;;;;;;;;;;;;;;;;;;6268864;22;19919;-83
2022/05/12 10:56:37;;;;;;;;;;;;;;;;;;6272761;22;19969;-83
2022/05/12 10:59:07;;;;;;;;;;;;;;;;;;6299069;22;19914;-83
2022/05/12 11:01:32;;;;;;;;;;;;;;;;;;6271294;22;19946;-83
2022/05/12 11:03:58;;;;;;;;;;;;;;;;;;6269054;22;20408;-83
2022/05/12 11:06:24;;;;;;;;;;;;;;;;;;6292400;22;20013;-83
2022/05/12 11:08:50;;;;;;;;;;;;;;;;;;6296219;22;19918;-83
2022/05/12 11:11:17;;;;;;;;;;;;;;;;;;6267309;22;19923;-83
2022/05/12 11:13:43;;;;;;;;;;;;;;;;;;6296224;22;19942;-83
2022/05/12 11:16:09;;;;;;;;;;;;;;;;;;6269902;22;20298;-83
2022/05/12 11:18:35;;;;;;;;;;;;;;;;;;6298960;22;19942;-83
2022/05/12 11:21:01;;;;;;;;;;;;;;;;;;6272963;22;20032;-83
2022/05/12 11:23:27;;;;;;;;;;;;;;;;;;6269744;22;19980;-83
2022/05/12 11:25:53;;;;;;;;;;;;;;;;;;6298709;22;19993;-83
2022/05/12 11:31:07;;;;;;;;;;;;;;;;;;6298683;22;19915;-83
2022/05/12 11:33:32;;;;;;;;;;;;;;;;;;6272912;22;19921;-83
2022/05/12 11:35:58;;;;;;;;;;;;;;;;;;6273230;22;20239;-83
2022/05/12 11:38:24;;;;;;;;;;;;;;;;;;6269710;22;20386;-83
2022/05/12 11:40:51;;;;;;;;;;;;;;;;;;6298174;22;19958;-83
2022/05/12 11:46:02;;;;;;;;;;;;;;;;;;6297312;22;19930;-83
2022/05/12 11:48:28;;;;;;;;;;;;;;;;;;6293485;22;19990;-83
2022/05/12 11:50:54;;;;;;;;;;;;;;;;;;6296237;22;19922;-83
2022/05/12 11:53:20;;;;;;;;;;;;;;;;;;6293324;22;19941;-83
2022/05/12 11:55:46;;;;;;;;;;;;;;;;;;6270046;22;20255;-83
2022/05/12 11:58:11;;;;;;;;;;;;;;;;;;6268331;22;20001;-83
2022/05/12 12:00:37;;;;;;;;;;;;;;;;;;6295934;22;20251;-83
2022/05/12 12:03:04;;;;;;;;;;;;;;;;;;6296575;22;20006;-83
2022/05/12 12:05:32;;;;;;;;;;;;;;;;;;6271671;22;19965;-83
2022/05/12 12:07:58;;;;;;;;;;;;;;;;;;6299090;22;19915;-83
2022/05/12 12:10:24;;;;;;;;;;;;;;;;;;6296649;22;19923;-83
2022/05/12 12:12:50;;;;;;;;;;;;;;;;;;6298497;22;19925;-83
2022/05/12 12:15:16;;;;;;;;;;;;;;;;;;6296444;22;19915;-83
2022/05/12 12:17:42;;;;;;;;;;;;;;;;;;6272612;22;19919;-83
2022/05/12 12:20:08;;;;;;;;;;;;;;;;;;6269726;22;19994;-84
2022/05/12 12:22:35;;;;;;;;;;;;;;;;;;6297988;22;19961;-83
2022/05/12 12:25:01;;;;;;;;;;;;;;;;;;6272245;22;19933;-83
2022/05/12 12:27:27;;;;;;;;;;;;;;;;;;6297764;22;19923;-83
2022/05/12 12:29:54;;;;;;;;;;;;;;;;;;6271840;22;20332;-83
2022/05/12 12:32:21;;;;;;;;;;;;;;;;;;6295816;22;19964;-83
2022/05/12 12:34:47;;;;;;;;;;;;;;;;;;6298312;22;20339;-83
2022/05/12 12:37:13;;;;;;;;;;;;;;;;;;6270713;22;19919;-83
2022/05/12 12:39:39;;;;;;;;;;;;;;;;;;6298930;22;19952;-83
2022/05/12 12:42:05;;;;;;;;;;;;;;;;;;6298504;22;19926;-83
2022/05/12 12:44:31;;;;;;;;;;;;;;;;;;6298917;22;19922;-83
2022/05/12 12:46:58;;;;;;;;;;;;;;;;;;6273600;22;19957;-83
2022/05/12 12:49:24;;;;;;;;;;;;;;;;;;6297082;22;19919;-83
2022/05/12 12:51:50;;;;;;;;;;;;;;;;;;6274482;22;19914;-83
2022/05/12 12:57:00;;;;;;;;;;;;;;;;;;6299384;22;20339;-83
2022/05/12 12:59:26;;;;;;;;;;;;;;;;;;6271515;22;19920;-83
2022/05/12 13:01:52;;;;;;;;;;;;;;;;;;6273798;22;19915;-83
2022/05/12 13:04:18;;;;;;;;;;;;;;;;;;6270503;22;19954;-83
2022/05/12 13:06:44;;;;;;;;;;;;;;;;;;6298415;22;19923;-83
2022/05/12 13:09:10;;;;;;;;;;;;;;;;;;6296612;22;19954;-83
2022/05/12 13:11:39;;;;;;;;;;;;;;;;;;6272912;22;19938;-83
2022/05/12 13:14:05;;;;;;;;;;;;;;;;;;6273204;22;19925;-83
2022/05/12 13:16:33;;;;;;;;;;;;;;;;;;6297782;22;19918;-83
2022/05/12 13:18:59;;;;;;;;;;;;;;;;;;6273732;22;20422;-83
2022/05/12 13:21:25;;;;;;;;;;;;;;;;;;6296774;22;19984;-83
2022/05/12 13:23:51;;;;;;;;;;;;;;;;;;6272955;22;20594;-83
2022/05/12 13:26:17;;;;;;;;;;;;;;;;;;6270877;22;20251;-83
2022/05/12 13:28:43;;;;;;;;;;;;;;;;;;6299407;22;19914;-83
2022/05/12 13:31:09;;;;;;;;;;;;;;;;;;6296969;22;19938;-83
2022/05/12 13:37:08;;;;;;;;;;;;;;;;;;;;;
2022/05/12 13:39:49;;;;;;;;;;;;;;;;;;6212091;23;19920;-83
2022/05/12 13:42:15;;;;;;;;;;;;;;;;;;6259840;22;19986;-84
2022/05/12 13:44:41;;;;;;;;;;;;;;;;;;6299045;22;19991;-84
2022/05/12 13:47:07;;;;;;;;;;;;;;;;;;6270125;22;19918;-84
2022/05/12 13:49:33;;;;;;;;;;;;;;;;;;6271711;22;20201;-83
2022/05/12 13:51:59;;;;;;;;;;;;;;;;;;6272550;22;19915;-84
2022/05/12 13:54:25;;;;;;;;;;;;;;;;;;6294850;22;20166;-83
2022/05/12 13:56:51;;;;;;;;;;;;;;;;;;6271548;22;19918;-83
2022/05/12 13:59:16;;;;;;;;;;;;;;;;;;6267244;22;19962;-83
2022/05/12 14:01:42;;;;;;;;;;;;;;;;;;6295681;22;20522;-83
2022/05/12 14:04:08;;;;;;;;;;;;;;;;;;6294324;22;19915;-84
2022/05/12 14:06:34;;;;;;;;;;;;;;;;;;6270041;22;19922;-84
2022/05/12 14:09:00;;;;;;;;;;;;;;;;;;6270944;22;20335;-83
2022/05/12 14:11:26;;;;;;;;;;;;;;;;;;6268663;22;19919;-83
2022/05/12 14:19:22;;;;;;;;;;;;;;;;;;6295757;22;19919;-83
2022/05/12 14:21:48;;;;;;;;;;;;;;;;;;6296465;22;19919;-83
2022/05/12 14:24:15;;;;;;;;;;;;;;;;;;6268709;22;20336;-83
2022/05/12 14:26:41;;;;;;;;;;;;;;;;;;6297926;22;19962;-83
2022/05/12 14:29:07;;;;;;;;;;;;;;;;;;6267463;22;19919;-83
2022/05/12 14:31:35;;;;;;;;;;;;;;;;;;6295851;22;19925;-83
2022/05/12 14:34:02;;;;;;;;;;;;;;;;;;6270488;22;19925;-83
2022/05/12 14:36:28;;;;;;;;;;;;;;;;;;6268543;22;19922;-84
2022/05/12 14:38:54;;;;;;;;;;;;;;;;;;6294673;22;19969;-83
2022/05/12 14:41:21;;;;;;;;;;;;;;;;;;6267324;22;19925;-84
2022/05/12 14:43:47;;;;;;;;;;;;;;;;;;6270450;22;19926;-83
2022/05/12 14:46:13;;;;;;;;;;;;;;;;;;6266947;22;19923;-84
2022/05/12 14:48:39;;;;;;;;;;;;;;;;;;6270042;22;19930;-84
2022/05/12 14:51:05;;;;;;;;;;;;;;;;;;6294306;22;19930;-83
2022/05/12 14:53:31;;;;;;;;;;;;;;;;;;6270212;22;19989;-84
2022/05/12 14:55:57;;;;;;;;;;;;;;;;;;6294147;22;20256;-83
2022/05/12 14:58:23;;;;;;;;;;;;;;;;;;6266393;22;20461;-83
2022/05/12 15:00:49;;;;;;;;;;;;;;;;;;6270357;22;19919;-83
2022/05/12 15:03:15;;;;;;;;;;;;;;;;;;6266022;22;19941;-84
2022/05/12 15:05:41;;;;;;;;;;;;;;;;;;6294665;22;20193;-83
2022/05/12 15:08:10;;;;;;;;;;;;;;;;;;6284949;22;20294;-83
2022/05/12 15:10:36;;;;;;;;;;;;;;;;;;6263237;22;19986;-83
2022/05/12 15:13:02;;;;;;;;;;;;;;;;;;6288533;22;19949;-83
2022/05/12 15:15:29;;;;;;;;;;;;;;;;;;6292757;22;19919;-83
2022/05/12 15:17:55;;;;;;;;;;;;;;;;;;6292615;22;20018;-83
2022/05/12 15:20:21;;;;;;;;;;;;;;;;;;6288206;22;20386;-83
2022/05/12 15:22:49;;;;;;;;;;;;;;;;;;6290418;22;20197;-82
2022/05/12 15:25:15;;;;;;;;;;;;;;;;;;6262687;22;20389;-83
2022/05/12 15:27:41;;;;;;;;;;;;;;;;;;6263536;22;19976;-83
2022/05/12 15:30:07;;;;;;;;;;;;;;;;;;6261706;22;20141;-82
2022/05/12 15:32:33;;;;;;;;;;;;;;;;;;6266327;22;19928;-82
2022/05/12 15:34:59;;;;;;;;;;;;;;;;;;6287258;22;19926;-83
2022/05/12 15:37:25;;;;;;;;;;;;;;;;;;6287171;22;19923;-83
2022/05/12 15:39:51;;;;;;;;;;;;;;;;;;6289278;22;19919;-82
2022/05/12 15:42:17;;;;;;;;;;;;;;;;;;6262528;22;19968;-82
2022/05/12 15:44:44;;;;;;;;;;;;;;;;;;6282662;22;19942;-83
2022/05/12 15:47:10;;;;;;;;;;;;;;;;;;6284245;22;19989;-83
2022/05/12 15:49:36;;;;;;;;;;;;;;;;;;6288413;22;20326;-82
2022/05/12 15:52:05;;;;;;;;;;;;;;;;;;6291121;22;19921;-82
2022/05/12 15:54:31;;;;;;;;;;;;;;;;;;6290667;22;19969;-82
2022/05/12 15:56:57;;;;;;;;;;;;;;;;;;6262008;22;19914;-83
2022/05/12 15:59:23;;;;;;;;;;;;;;;;;;6261538;22;19923;-82
2022/05/12 16:01:49;;;;;;;;;;;;;;;;;;6262012;22;19998;-83
2022/05/12 16:04:15;;;;;;;;;;;;;;;;;;6261227;22;19933;-84
2022/05/12 16:06:41;;;;;;;;;;;;;;;;;;6283760;22;19930;-84
2022/05/12 16:09:07;;;;;;;;;;;;;;;;;;6259119;22;20172;-83
2022/05/12 16:14:11;;;;;;;;;;;;;;;;;;6285591;22;20266;-83
2022/05/12 16:16:37;;;;;;;;;;;;;;;;;;6292543;22;19915;-83
2022/05/12 16:19:03;;;;;;;;;;;;;;;;;;6288160;22;20022;-83
2022/05/12 16:21:29;;;;;;;;;;;;;;;;;;6260595;22;19926;-83
2022/05/12 16:23:57;;;;;;;;;;;;;;;;;;6290847;22;19930;-84
2022/05/12 16:26:23;;;;;;;;;;;;;;;;;;6260881;22;19923;-83
2022/05/12 16:28:49;;;;;;;;;;;;;;;;;;6263027;22;19969;-83
2022/05/12 16:31:14;;;;;;;;;;;;;;;;;;6260382;22;19918;-83
2022/05/12 16:33:40;;;;;;;;;;;;;;;;;;6288261;22;19946;-83
2022/05/12 16:36:06;;;;;;;;;;;;;;;;;;6287456;22;20159;-83
2022/05/12 16:38:36;;;;;;;;;;;;;;;;;;6284538;22;19969;-83
2022/05/12 16:41:02;;;;;;;;;;;;;;;;;;6289925;22;19918;-83
2022/05/12 16:43:28;;;;;;;;;;;;;;;;;;6287193;22;19915;-84
2022/05/12 16:45:54;;;;;;;;;;;;;;;;;;6288865;22;20592;-83
2022/05/12 16:48:20;;;;;;;;;;;;;;;;;;6286096;22;20233;-84
2022/05/12 16:50:46;;;;;;;;;;;;;;;;;;6287657;22;19919;-83
2022/05/12 16:53:12;;;;;;;;;;;;;;;;;;6287549;22;19926;-83
2022/05/12 16:55:38;;;;;;;;;;;;;;;;;;6290203;22;19919;-83
2022/05/12 16:58:04;;;;;;;;;;;;;;;;;;6289991;22;20248;-83
2022/05/12 17:00:31;;;;;;;;;;;;;;;;;;6288191;22;19993;-83
2022/05/12 17:02:57;;;;;;;;;;;;;;;;;;6291442;22;19926;-83
2022/05/12 17:05:22;;;;;;;;;;;;;;;;;;6265316;22;19922;-83
2022/05/12 17:07:48;;;;;;;;;;;;;;;;;;6292100;22;19919;-83
2022/05/12 17:10:14;;;;;;;;;;;;;;;;;;6287590;22;19919;-83
2022/05/12 17:12:42;;;;;;;;;;;;;;;;;;6262673;22;19961;-83
2022/05/12 17:15:08;;;;;;;;;;;;;;;;;;6286100;22;19915;-83
2022/05/12 17:17:35;;;;;;;;;;;;;;;;;;6291704;22;19927;-83
2022/05/12 17:20:01;;;;;;;;;;;;;;;;;;6266197;22;19950;-83
2022/05/12 17:22:27;;;;;;;;;;;;;;;;;;6262311;22;19930;-83
2022/05/12 17:24:53;;;;;;;;;;;;;;;;;;6289514;22;19931;-82
2022/05/12 17:27:19;;;;;;;;;;;;;;;;;;6285129;22;19923;-83
2022/05/12 17:29:45;;;;;;;;;;;;;;;;;;6288425;22;19930;-82
2022/05/12 17:32:11;;;;;;;;;;;;;;;;;;6290348;22;19972;-82
2022/05/12 17:34:37;;;;;;;;;;;;;;;;;;6290946;22;19926;-83
2022/05/12 17:37:03;;;;;;;;;;;;;;;;;;6293539;22;20336;-83
2022/05/12 17:39:29;;;;;;;;;;;;;;;;;;6292107;22;19989;-82
2022/05/12 17:41:55;;;;;;;;;;;;;;;;;;6294409;22;19988;-82
2022/05/12 17:44:21;;;;;;;;;;;;;;;;;;6293593;22;19918;-83
2022/05/12 17:46:47;;;;;;;;;;;;;;;;;;6297504;22;19923;-83
2022/05/12 17:49:13;;;;;;;;;;;;;;;;;;6292361;22;19918;-83
2022/05/12 17:51:39;;;;;;;;;;;;;;;;;;6295964;22;20350;-83
2022/05/12 17:54:05;;;;;;;;;;;;;;;;;;6294927;22;20054;-82
2022/05/12 17:56:31;;;;;;;;;;;;;;;;;;6296800;22;19918;-83
2022/05/12 17:58:57;;;;;;;;;;;;;;;;;;6267038;22;19938;-83
2022/05/12 18:01:23;;;;;;;;;;;;;;;;;;6292668;22;19926;-83
2022/05/12 18:03:49;;;;;;;;;;;;;;;;;;6267947;22;19918;-83
2022/05/12 18:06:19;;;;;;;;;;;;;;;;;;6290406;22;19930;-83
2022/05/12 18:08:45;;;;;;;;;;;;;;;;;;6267313;22;19923;-83
2022/05/12 18:11:11;;;;;;;;;;;;;;;;;;6291038;22;19918;-83